createdAt,value
2022-11-30T00:01:17.102Z,62.07
2022-11-30T00:03:44.890Z,62.97
2022-11-30T00:06:15.637Z,70.00
2022-11-30T00:08:43.103Z,69.03
2022-11-30T00:11:12.655Z,67.53
2022-11-30T00:13:40.712Z,71.57
2022-11-30T00:16:08.869Z,73.27
2022-11-30T00:18:36.945Z,66.10
2022-11-30T00:21:08.880Z,72.73
2022-11-30T00:23:38.663Z,67.73
2022-11-30T00:26:09.085Z,67.37
2022-11-30T00:28:37.914Z,60.97
2022-11-30T00:31:14.059Z,62.73
2022-11-30T00:33:42.035Z,62.17
2022-11-30T00:36:13.286Z,62.53
2022-11-30T00:38:44.162Z,63.27
2022-11-30T00:41:12.256Z,62.37
2022-11-30T00:43:39.733Z,66.23
2022-11-30T00:46:09.409Z,63.23
2022-11-30T00:48:38.348Z,64.90
2022-11-30T00:51:07.228Z,57.97
2022-11-30T00:53:34.646Z,63.03
2022-11-30T00:56:01.938Z,64.47
2022-11-30T00:58:29.218Z,58.57
2022-11-30T01:00:56.699Z,58.40
2022-11-30T01:03:24.154Z,58.93
2022-11-30T01:05:51.424Z,60.30
2022-11-30T01:08:18.834Z,62.73
2022-11-30T01:10:47.736Z,59.53
2022-11-30T01:13:15.248Z,60.30
2022-11-30T01:15:44.349Z,55.30
2022-11-30T01:18:12.337Z,60.60
2022-11-30T01:20:43.592Z,61.50
2022-11-30T01:23:11.354Z,55.03
2022-11-30T01:25:39.413Z,57.57
2022-11-30T01:28:09.460Z,60.07
2022-11-30T01:30:36.849Z,57.20
2022-11-30T01:33:04.917Z,57.93
2022-11-30T01:35:32.594Z,59.97
2022-11-30T01:38:00.059Z,57.00
2022-11-30T01:40:27.345Z,56.67
2022-11-30T01:42:54.598Z,52.33
2022-11-30T01:45:21.972Z,56.00
2022-11-30T01:47:56.742Z,53.60
2022-11-30T01:50:30.651Z,52.53
2022-11-30T01:52:58.722Z,51.70
2022-11-30T01:55:42.326Z,56.27
2022-11-30T01:58:18.430Z,55.17
2022-11-30T02:00:48.671Z,60.03
2022-11-30T02:03:30.221Z,55.20
2022-11-30T02:05:58.019Z,56.67
2022-11-30T02:08:27.008Z,59.50
2022-11-30T02:10:58.231Z,63.20
2022-11-30T02:13:25.784Z,60.60
2022-11-30T02:16:02.141Z,56.03
2022-11-30T02:18:39.885Z,56.57
2022-11-30T02:21:33.283Z,55.43
2022-11-30T02:24:11.328Z,57.67
2022-11-30T02:27:03.858Z,57.93
2022-11-30T02:29:42.767Z,56.00
2022-11-30T02:32:22.880Z,55.57
2022-11-30T02:34:51.921Z,56.73
2022-11-30T02:37:20.611Z,56.10
2022-11-30T02:39:48.201Z,65.90
2022-11-30T02:42:15.958Z,61.03
2022-11-30T02:44:46.922Z,62.27
2022-11-30T02:47:46.800Z,66.40
2022-11-30T02:50:31.830Z,62.30
2022-11-30T02:53:00.008Z,59.30
2022-11-30T02:55:29.152Z,60.37
2022-11-30T02:57:56.369Z,57.40
2022-11-30T03:00:23.703Z,61.33
2022-11-30T03:02:51.407Z,61.53
2022-11-30T03:05:19.309Z,63.40
2022-11-30T03:07:46.649Z,64.50
2022-11-30T03:10:14.197Z,58.47
2022-11-30T03:12:41.581Z,59.40
2022-11-30T03:15:09.288Z,60.67
2022-11-30T03:17:36.747Z,66.67
2022-11-30T03:20:04.498Z,67.87
2022-11-30T03:22:31.768Z,64.30
2022-11-30T03:24:59.242Z,62.67
2022-11-30T03:27:26.633Z,70.70
2022-11-30T03:29:54.156Z,66.80
2022-11-30T03:32:21.557Z,67.47
2022-11-30T03:34:49.269Z,69.27
2022-11-30T03:37:16.719Z,63.67
2022-11-30T03:39:43.967Z,72.33
2022-11-30T03:42:11.233Z,72.43
2022-11-30T03:44:38.487Z,75.67
2022-11-30T03:47:05.907Z,79.20
2022-11-30T03:49:33.168Z,66.37
2022-11-30T03:52:00.765Z,60.93
2022-11-30T03:54:28.181Z,64.73
2022-11-30T03:56:55.799Z,66.27
2022-11-30T03:59:23.166Z,68.63
2022-11-30T04:01:50.472Z,64.37
2022-11-30T04:04:17.910Z,71.43
2022-11-30T04:06:45.138Z,70.33
2022-11-30T04:09:12.601Z,66.33
2022-11-30T04:11:40.005Z,72.60
2022-11-30T04:14:07.382Z,72.90
2022-11-30T04:16:34.653Z,66.47
2022-11-30T04:19:02.509Z,67.93
2022-11-30T04:21:30.237Z,62.40
2022-11-30T04:23:57.516Z,67.83
2022-11-30T04:26:24.914Z,68.20
2022-11-30T04:28:52.192Z,67.70
2022-11-30T04:31:19.605Z,70.47
2022-11-30T04:33:46.885Z,70.80
2022-11-30T04:36:19.515Z,70.07
2022-11-30T04:38:47.397Z,62.93
2022-11-30T04:41:14.784Z,69.97
2022-11-30T04:43:42.198Z,67.33
2022-11-30T04:46:09.629Z,70.97
2022-11-30T04:48:37.798Z,66.90
2022-11-30T04:51:08.040Z,71.80
2022-11-30T04:53:37.230Z,69.03
2022-11-30T04:56:09.998Z,63.40
2022-11-30T04:58:39.127Z,72.57
2022-11-30T05:01:07.181Z,65.10
2022-11-30T05:03:34.972Z,60.67
2022-11-30T05:06:03.245Z,71.93
2022-11-30T05:08:30.902Z,67.67
2022-11-30T05:10:58.356Z,70.03
2022-11-30T05:13:26.362Z,69.80
2022-11-30T05:15:54.257Z,74.57
2022-11-30T05:18:22.123Z,72.90
2022-11-30T05:20:50.828Z,71.53
2022-11-30T05:23:18.694Z,67.83
2022-11-30T05:25:47.124Z,68.13
2022-11-30T05:28:14.760Z,72.60
2022-11-30T05:30:43.157Z,66.77
2022-11-30T05:33:10.760Z,72.27
2022-11-30T05:35:39.057Z,64.83
2022-11-30T05:38:06.884Z,70.83
2022-11-30T05:40:34.291Z,67.63
2022-11-30T05:43:02.533Z,73.47
2022-11-30T05:45:30.864Z,74.20
2022-11-30T05:47:58.144Z,69.83
2022-11-30T05:50:25.540Z,65.40
2022-11-30T05:52:57.093Z,66.57
2022-11-30T05:55:25.095Z,70.83
2022-11-30T05:57:53.035Z,71.10
2022-11-30T06:00:22.057Z,69.53
2022-11-30T06:02:54.735Z,80.03
2022-11-30T06:05:22.116Z,65.53
2022-11-30T06:07:49.414Z,68.90
2022-11-30T06:10:16.932Z,66.70
2022-11-30T06:12:44.334Z,70.77
2022-11-30T06:15:12.201Z,68.27
2022-11-30T06:17:39.824Z,64.47
2022-11-30T06:20:08.454Z,72.10
2022-11-30T06:22:36.289Z,66.43
2022-11-30T06:25:04.615Z,66.70
2022-11-30T06:27:33.481Z,69.23
2022-11-30T06:30:01.522Z,68.70
2022-11-30T06:32:28.881Z,69.83
2022-11-30T06:34:56.158Z,71.93
2022-11-30T06:37:23.444Z,65.33
2022-11-30T06:40:05.868Z,66.07
2022-11-30T06:42:35.235Z,68.77
2022-11-30T06:45:02.646Z,69.83
2022-11-30T06:47:30.064Z,69.33
2022-11-30T06:49:57.594Z,65.73
2022-11-30T06:52:25.200Z,63.27
2022-11-30T06:54:52.587Z,67.20
2022-11-30T06:57:19.908Z,65.53
2022-11-30T06:59:47.537Z,67.27
2022-11-30T07:02:18.555Z,69.27
2022-11-30T07:04:46.548Z,68.57
2022-11-30T07:07:15.085Z,68.93
2022-11-30T07:09:42.497Z,65.17
2022-11-30T07:12:09.729Z,65.20
2022-11-30T07:14:37.161Z,68.27
2022-11-30T07:17:04.884Z,66.13
2022-11-30T07:19:36.162Z,69.57
2022-11-30T07:22:03.810Z,63.67
2022-11-30T07:24:49.868Z,63.73
2022-11-30T07:27:17.542Z,72.00
2022-11-30T07:29:44.810Z,67.13
2022-11-30T07:32:12.138Z,66.10
2022-11-30T07:34:40.077Z,63.07
2022-11-30T07:37:07.366Z,64.17
2022-11-30T07:39:34.834Z,59.27
2022-11-30T07:42:02.112Z,61.03
2022-11-30T07:44:29.698Z,59.10
2022-11-30T07:46:56.981Z,54.90
2022-11-30T07:49:24.611Z,52.97
2022-11-30T07:51:51.977Z,58.23
2022-11-30T07:54:19.425Z,57.70
2022-11-30T07:56:46.691Z,55.77
2022-11-30T07:59:14.087Z,53.43
2022-11-30T08:01:41.541Z,57.90
2022-11-30T08:04:09.416Z,60.23
2022-11-30T08:06:36.709Z,59.93
2022-11-30T08:09:04.812Z,61.03
2022-11-30T08:11:34.766Z,61.13
2022-11-30T08:14:03.401Z,58.20
2022-11-30T08:16:34.476Z,59.80
2022-11-30T08:19:01.784Z,56.33
2022-11-30T08:21:29.029Z,55.97
2022-11-30T08:23:57.140Z,53.27
2022-11-30T08:26:26.317Z,55.47
2022-11-30T08:28:54.965Z,50.77
2022-11-30T08:31:29.875Z,48.57
2022-11-30T08:33:59.578Z,46.47
2022-11-30T08:36:28.642Z,53.90
2022-11-30T08:38:58.564Z,53.07
2022-11-30T08:41:26.642Z,51.57
2022-11-30T08:43:54.659Z,50.27
2022-11-30T08:49:26.554Z,52.40
2022-11-30T08:54:45.941Z,47.87
2022-11-30T08:57:15.803Z,55.13
2022-11-30T08:59:43.637Z,51.27
2022-11-30T09:02:12.434Z,51.00
2022-11-30T09:04:40.085Z,49.10
2022-11-30T09:07:07.520Z,48.13
2022-11-30T09:09:35.450Z,47.07
2022-11-30T09:12:03.028Z,49.67
2022-11-30T09:14:30.598Z,51.57
2022-11-30T09:16:57.993Z,49.23
2022-11-30T09:19:26.134Z,51.07
2022-11-30T09:21:53.748Z,52.50
2022-11-30T09:24:21.446Z,45.30
2022-11-30T09:26:48.810Z,46.80
2022-11-30T09:29:16.960Z,48.83
2022-11-30T09:31:44.422Z,45.63
2022-11-30T09:34:12.383Z,45.80
2022-11-30T09:36:39.923Z,48.73
2022-11-30T09:39:09.418Z,48.37
2022-11-30T09:41:42.495Z,48.70
2022-11-30T09:44:21.771Z,48.90
2022-11-30T09:46:59.602Z,45.63
2022-11-30T09:49:47.765Z,47.40
2022-11-30T09:52:28.535Z,45.53
2022-11-30T09:54:57.164Z,47.80
2022-11-30T09:57:33.957Z,50.40
2022-11-30T10:00:10.860Z,48.53
2022-11-30T10:02:41.869Z,51.10
2022-11-30T10:05:28.958Z,54.53
2022-11-30T10:08:46.031Z,45.47
2022-11-30T10:11:54.874Z,50.13
2022-11-30T10:14:27.986Z,62.63
2022-11-30T10:17:14.232Z,46.00
2022-11-30T10:20:06.857Z,45.10
2022-11-30T10:22:34.110Z,42.23
2022-11-30T10:25:23.636Z,40.70
2022-11-30T10:27:52.569Z,42.20
2022-11-30T10:30:29.546Z,45.77
2022-11-30T10:33:02.183Z,42.87
2022-11-30T10:35:38.494Z,46.37
2022-11-30T10:38:55.880Z,46.17
2022-11-30T10:41:31.420Z,41.83
2022-11-30T10:44:04.516Z,42.40
2022-11-30T10:46:37.256Z,44.20
2022-11-30T10:49:16.969Z,46.00
2022-11-30T10:51:51.027Z,44.17
2022-11-30T10:54:21.298Z,38.77
2022-11-30T10:56:48.610Z,37.60
2022-11-30T10:59:24.244Z,38.97
2022-11-30T11:01:53.414Z,37.93
2022-11-30T11:04:27.848Z,42.27
2022-11-30T11:07:08.350Z,39.70
2022-11-30T11:09:50.827Z,44.30
2022-11-30T11:12:26.092Z,42.37
2022-11-30T11:15:22.676Z,46.37
2022-11-30T11:17:51.555Z,46.60
2022-11-30T11:20:29.790Z,47.73
2022-11-30T11:22:57.366Z,52.03
2022-11-30T11:25:37.667Z,53.27
2022-11-30T11:28:12.056Z,45.90
2022-11-30T11:30:39.882Z,49.67
2022-11-30T11:33:13.595Z,47.90
2022-11-30T11:35:45.923Z,48.60
2022-11-30T11:38:40.470Z,48.13
2022-11-30T11:41:21.208Z,48.53
2022-11-30T11:44:25.832Z,48.23
2022-11-30T11:46:58.935Z,46.63
2022-11-30T11:49:32.345Z,41.90
2022-11-30T11:52:02.564Z,40.40
2022-11-30T11:54:53.320Z,45.27
2022-11-30T11:57:27.152Z,42.63
2022-11-30T12:00:02.719Z,46.37
2022-11-30T12:02:58.660Z,49.00
2022-11-30T12:05:43.458Z,41.30
2022-11-30T12:08:19.648Z,47.63
2022-11-30T12:11:12.812Z,47.13
2022-11-30T12:13:42.585Z,47.03
2022-11-30T12:16:15.733Z,46.33
2022-11-30T12:19:14.627Z,41.30
2022-11-30T12:22:08.273Z,45.63
2022-11-30T12:24:41.491Z,43.70
2022-11-30T12:27:14.700Z,39.73
2022-11-30T12:30:11.373Z,47.50
2022-11-30T12:32:54.375Z,45.90
2022-11-30T12:35:52.867Z,39.53
2022-11-30T12:38:46.736Z,42.20
2022-11-30T12:41:31.503Z,46.67
2022-11-30T12:44:11.631Z,43.47
2022-11-30T12:46:38.889Z,43.60
2022-11-30T12:49:22.615Z,41.90
2022-11-30T12:51:49.810Z,45.60
2022-11-30T12:54:23.051Z,40.10
2022-11-30T12:57:13.085Z,39.80
2022-11-30T12:59:47.483Z,42.10
2022-11-30T13:02:34.474Z,43.10
2022-11-30T13:05:15.243Z,42.37
2022-11-30T13:07:49.653Z,41.13
2022-11-30T13:10:40.325Z,40.23
2022-11-30T13:13:15.092Z,43.47
2022-11-30T13:15:44.556Z,46.63
2022-11-30T13:18:20.911Z,46.00
2022-11-30T13:21:16.265Z,41.83
2022-11-30T13:23:55.466Z,46.93
2022-11-30T13:26:58.474Z,41.97
2022-11-30T13:29:59.018Z,41.97
2022-11-30T13:35:29.654Z,47.73
2022-11-30T13:41:09.012Z,40.87
2022-11-30T13:43:56.732Z,40.70
2022-11-30T13:46:24.709Z,42.13
2022-11-30T13:49:21.298Z,37.83
2022-11-30T13:52:07.048Z,42.20
2022-11-30T13:54:47.533Z,41.37
2022-11-30T13:57:18.330Z,40.47
2022-11-30T13:59:49.179Z,38.97
2022-11-30T14:02:36.805Z,42.10
2022-11-30T14:05:19.137Z,38.70
2022-11-30T14:08:06.663Z,37.23
2022-11-30T14:10:38.226Z,37.10
2022-11-30T14:13:29.767Z,38.73
2022-11-30T14:16:01.753Z,33.40
2022-11-30T14:18:40.562Z,37.73
2022-11-30T14:21:18.805Z,39.33
2022-11-30T14:23:56.871Z,39.20
2022-11-30T14:26:35.417Z,37.90
2022-11-30T14:29:02.695Z,36.97
2022-11-30T14:31:58.185Z,39.70
2022-11-30T14:34:51.882Z,37.63
2022-11-30T14:37:24.041Z,32.10
2022-11-30T14:39:56.658Z,36.80
2022-11-30T14:42:29.386Z,35.07
2022-11-30T14:44:57.660Z,37.23
2022-11-30T14:47:34.830Z,34.07
2022-11-30T14:50:06.096Z,37.10
2022-11-30T14:52:41.042Z,39.37
2022-11-30T14:55:18.154Z,34.63
2022-11-30T14:58:16.393Z,35.43
2022-11-30T15:00:45.251Z,40.17
2022-11-30T15:03:28.930Z,39.30
2022-11-30T15:06:05.203Z,35.10
2022-11-30T15:08:42.912Z,36.33
2022-11-30T15:11:13.229Z,34.43
2022-11-30T15:13:49.139Z,36.60
2022-11-30T15:16:25.687Z,55.13
2022-11-30T15:18:55.718Z,54.27
2022-11-30T15:21:31.791Z,41.30
2022-11-30T15:24:02.507Z,38.10
2022-11-30T15:26:38.076Z,36.30
2022-11-30T15:29:31.035Z,39.60
2022-11-30T15:32:01.143Z,35.80
2022-11-30T15:34:28.922Z,38.33
2022-11-30T15:36:58.505Z,33.43
2022-11-30T15:39:28.387Z,33.97
2022-11-30T15:41:57.928Z,31.53
2022-11-30T15:44:45.435Z,34.77
2022-11-30T15:47:35.950Z,35.10
2022-11-30T15:50:23.826Z,34.67
2022-11-30T15:52:51.928Z,35.50
2022-11-30T15:56:03.051Z,36.10
2022-11-30T15:58:46.681Z,104.53
2022-11-30T16:01:22.355Z,41.17
2022-11-30T16:03:55.692Z,33.17
2022-11-30T16:06:36.474Z,47.40
2022-11-30T16:09:18.122Z,36.97
2022-11-30T16:11:46.499Z,35.37
2022-11-30T16:14:16.637Z,37.80
2022-11-30T16:16:44.359Z,36.77
2022-11-30T16:19:11.695Z,42.53
2022-11-30T16:21:39.117Z,39.47
2022-11-30T16:24:06.887Z,35.90
2022-11-30T16:26:51.272Z,36.97
2022-11-30T16:29:19.927Z,38.93
2022-11-30T16:31:47.311Z,35.90
2022-11-30T16:34:14.677Z,37.63
2022-11-30T16:36:42.006Z,40.73
2022-11-30T16:39:12.353Z,37.87
2022-11-30T16:41:39.882Z,37.63
2022-11-30T16:44:14.075Z,44.07
2022-11-30T16:46:42.147Z,74.47
2022-11-30T16:49:09.584Z,88.20
2022-11-30T16:51:37.644Z,61.53
2022-11-30T16:54:05.640Z,50.00
2022-11-30T16:56:33.326Z,53.17
2022-11-30T16:59:00.638Z,64.53
2022-11-30T17:01:54.213Z,61.90
2022-11-30T17:04:24.522Z,55.13
2022-11-30T17:06:57.163Z,49.53
2022-11-30T17:09:30.081Z,54.30
2022-11-30T17:11:57.917Z,53.50
2022-11-30T17:14:25.488Z,46.17
2022-11-30T17:16:53.295Z,50.80
2022-11-30T17:19:20.891Z,48.33
2022-11-30T17:21:50.994Z,58.73
2022-11-30T17:24:18.548Z,47.97
2022-11-30T17:26:46.208Z,49.80
2022-11-30T17:29:13.520Z,56.20
2022-11-30T17:31:41.276Z,50.07
2022-11-30T17:34:09.484Z,48.60
2022-11-30T17:36:36.999Z,44.83
2022-11-30T17:39:08.668Z,40.37
2022-11-30T17:41:36.137Z,40.97
2022-11-30T17:44:04.300Z,42.83
2022-11-30T17:46:31.643Z,40.17
2022-11-30T17:48:58.976Z,36.97
2022-11-30T17:51:26.480Z,43.37
2022-11-30T17:53:53.956Z,40.60
2022-11-30T17:56:21.313Z,39.23
2022-11-30T17:58:49.527Z,40.33
2022-11-30T18:01:22.174Z,35.37
2022-11-30T18:03:50.555Z,36.77
2022-11-30T18:06:18.323Z,42.83
2022-11-30T18:08:46.168Z,32.23
2022-11-30T18:11:16.782Z,35.43
2022-11-30T18:13:44.387Z,39.73
2022-11-30T18:16:14.970Z,37.63
2022-11-30T18:18:47.750Z,35.87
2022-11-30T18:21:18.398Z,36.40
2022-11-30T18:23:46.720Z,36.90
2022-11-30T18:26:17.001Z,37.57
2022-11-30T18:28:44.940Z,42.50
2022-11-30T18:31:12.817Z,34.23
2022-11-30T18:33:40.423Z,37.83
2022-11-30T18:36:08.293Z,41.33
2022-11-30T18:38:38.513Z,35.67
2022-11-30T18:41:06.750Z,35.87
2022-11-30T18:43:34.996Z,38.70
2022-11-30T18:46:11.476Z,38.27
2022-11-30T18:48:40.548Z,37.23
2022-11-30T18:51:12.157Z,39.87
2022-11-30T18:53:39.844Z,35.70
2022-11-30T18:56:16.635Z,43.53
2022-11-30T18:58:45.238Z,35.33
2022-11-30T19:01:19.205Z,39.23
2022-11-30T19:04:08.086Z,40.87
2022-11-30T19:06:37.061Z,43.70
2022-11-30T19:09:10.634Z,38.77
2022-11-30T19:11:39.562Z,45.47
2022-11-30T19:14:07.637Z,39.20
2022-11-30T19:16:35.865Z,46.97
2022-11-30T19:19:07.634Z,41.03
2022-11-30T19:21:35.382Z,40.40
2022-11-30T19:24:02.918Z,38.83
2022-11-30T19:26:30.956Z,41.17
2022-11-30T19:28:58.489Z,40.23
2022-11-30T19:31:26.153Z,42.77
2022-11-30T19:33:55.746Z,40.47
2022-11-30T19:36:28.090Z,44.97
2022-11-30T19:38:58.100Z,39.87
2022-11-30T19:41:25.952Z,41.87
2022-11-30T19:44:03.969Z,41.70
2022-11-30T19:46:33.038Z,43.23
2022-11-30T19:49:01.459Z,47.50
2022-11-30T19:51:30.659Z,40.93
2022-11-30T19:54:01.286Z,39.33
2022-11-30T19:56:31.212Z,40.17
2022-11-30T19:59:04.517Z,44.73
2022-11-30T20:01:33.112Z,38.17
2022-11-30T20:04:00.461Z,38.27
2022-11-30T20:06:36.753Z,40.87
2022-11-30T20:09:06.788Z,38.97
2022-11-30T20:11:34.457Z,35.40
2022-11-30T20:14:02.113Z,35.97
2022-11-30T20:16:29.553Z,36.07
2022-11-30T20:19:01.963Z,39.53
2022-11-30T20:21:34.099Z,37.70
2022-11-30T20:24:05.042Z,36.53
2022-11-30T20:26:35.066Z,34.23
2022-11-30T20:29:04.117Z,38.00
2022-11-30T20:31:33.277Z,38.10
2022-11-30T20:34:01.040Z,38.60
2022-11-30T20:36:28.567Z,37.03
2022-11-30T20:38:56.189Z,40.20
2022-11-30T20:41:25.014Z,35.83
2022-11-30T20:43:52.938Z,40.93
2022-11-30T20:46:25.937Z,40.70
2022-11-30T20:48:54.196Z,48.57
2022-11-30T20:51:31.588Z,47.83
2022-11-30T20:54:02.107Z,47.40
2022-11-30T20:56:29.980Z,50.70
2022-11-30T20:59:01.155Z,51.87
2022-11-30T21:01:28.745Z,54.13
2022-11-30T21:03:56.099Z,52.73
2022-11-30T21:06:23.542Z,48.23
2022-11-30T21:08:51.246Z,53.23
2022-11-30T21:11:20.900Z,51.97
2022-11-30T21:13:50.416Z,52.50
2022-11-30T21:16:26.943Z,49.47
2022-11-30T21:18:55.807Z,51.67
2022-11-30T21:21:25.872Z,49.30
2022-11-30T21:23:53.902Z,56.63
2022-11-30T21:26:23.856Z,50.53
2022-11-30T21:28:53.840Z,52.57
2022-11-30T21:31:22.238Z,50.67
2022-11-30T21:33:53.110Z,52.97
2022-11-30T21:36:22.979Z,50.37
2022-11-30T21:39:04.415Z,55.43
2022-11-30T21:41:33.850Z,50.70
2022-11-30T21:44:01.308Z,50.60
2022-11-30T21:46:28.905Z,51.50
2022-11-30T21:48:56.208Z,53.90
2022-11-30T21:51:26.740Z,54.10
2022-11-30T21:53:59.603Z,53.93
2022-11-30T21:56:30.236Z,52.30
2022-11-30T21:58:58.158Z,51.97
2022-11-30T22:01:29.735Z,51.90
2022-11-30T22:04:02.454Z,55.73
2022-11-30T22:06:31.551Z,51.97
2022-11-30T22:09:07.968Z,56.30
2022-11-30T22:11:39.324Z,54.13
2022-11-30T22:14:10.446Z,50.50
2022-11-30T22:16:38.070Z,56.90
2022-11-30T22:19:06.759Z,52.20
2022-11-30T22:21:34.621Z,49.73
2022-11-30T22:24:04.871Z,52.87
2022-11-30T22:26:35.281Z,50.53
2022-11-30T22:29:07.756Z,53.60
2022-11-30T22:31:37.726Z,53.57
2022-11-30T22:34:05.776Z,57.67
2022-11-30T22:36:34.899Z,53.97
2022-11-30T22:39:08.008Z,55.87
2022-11-30T22:41:35.479Z,53.67
2022-11-30T22:44:03.199Z,50.17
2022-11-30T22:46:32.700Z,51.17
2022-11-30T22:49:01.925Z,56.20
2022-11-30T22:51:30.874Z,51.47
2022-11-30T22:53:59.204Z,57.53
2022-11-30T22:56:29.533Z,57.10
2022-11-30T22:59:01.628Z,55.93
2022-11-30T23:01:37.570Z,59.47
2022-11-30T23:04:11.792Z,56.07
2022-11-30T23:06:41.051Z,56.07
2022-11-30T23:09:12.427Z,57.70
2022-11-30T23:11:40.596Z,52.63
2022-11-30T23:14:09.083Z,53.60
2022-11-30T23:16:36.955Z,51.80
2022-11-30T23:19:05.857Z,53.30
2022-11-30T23:21:41.756Z,56.13
2022-11-30T23:24:16.135Z,55.23
2022-11-30T23:26:44.281Z,56.30
2022-11-30T23:29:13.630Z,57.57
2022-11-30T23:31:43.785Z,54.23
2022-11-30T23:34:14.299Z,53.93
2022-11-30T23:36:41.669Z,53.77
2022-11-30T23:39:11.780Z,52.20
2022-11-30T23:41:40.046Z,57.97
2022-11-30T23:44:08.299Z,54.20
2022-11-30T23:46:36.456Z,54.87
2022-11-30T23:49:04.493Z,57.90
2022-11-30T23:51:31.775Z,57.37
2022-11-30T23:53:59.210Z,54.37
2022-11-30T23:56:26.489Z,54.30
2022-11-30T23:58:53.799Z,55.10
